Time;durP1;ratioP1;P1;durP2;ratioP2;P2;SDS_P1;SDS_P2;PMS_P1;PMS_P2;Temp;Humidity;BMP_temperature;BMP_pressure;BME280_temperature;BME280_humidity;BME280_pressure;Samples;Min_cycle;Max_cycle;Signal;HPM_P1;HPM_P2
2022/10/11 00:04:27;;;;;;;4.57;4.17;;;15.60;43.80;;;;;;10494130;28;20231;-71
2022/10/11 00:09:30;;;;;;;4.30;3.90;;;15.60;43.50;;;;;;10492330;28;20235;-72
2022/10/11 00:14:35;;;;;;;6.00;4.00;;;15.50;44.20;;;;;;10495855;28;20735;-71
2022/10/11 00:19:38;;;;;;;7.20;4.17;;;15.50;43.60;;;;;;10493997;28;20243;-71
2022/10/11 00:24:42;;;;;;;4.93;3.90;;;15.50;43.40;;;;;;10491750;28;20228;-71
2022/10/11 00:29:46;;;;;;;6.07;4.40;;;15.40;43.80;;;;;;10490598;28;20236;-72
2022/10/11 00:34:49;;;;;;;4.63;3.77;;;15.40;44.70;;;;;;10491361;28;20232;-71
2022/10/11 00:39:52;;;;;;;5.00;4.07;;;15.40;44.70;;;;;;10493318;28;20239;-73
2022/10/11 00:45:34;;;;;;;6.10;4.33;;;15.40;44.70;;;;;;10490122;28;20242;-71
2022/10/11 00:50:39;;;;;;;5.13;4.63;;;15.50;45.50;;;;;;10414927;28;20672;-71
2022/10/11 00:55:50;;;;;;;6.80;4.37;;;15.50;44.80;;;;;;10488970;28;20236;-72
2022/10/11 01:00:54;;;;;;;6.37;4.60;;;15.50;45.80;;;;;;10495867;28;20259;-72
2022/10/11 01:05:58;;;;;;;5.27;4.77;;;15.50;44.80;;;;;;10495189;28;20219;-71
2022/10/11 01:11:02;;;;;;;6.83;4.63;;;15.50;45.20;;;;;;10497902;28;20223;-71
2022/10/11 01:16:13;;;;;;;6.20;5.10;;;15.40;44.70;;;;;;10496381;28;20232;-71
2022/10/11 01:21:30;;;;;;;5.90;4.60;;;15.40;45.80;;;;;;10494210;28;20227;-71
2022/10/11 01:27:15;;;;;;;8.07;5.00;;;15.40;46.50;;;;;;10498136;28;20588;-74
2022/10/11 01:32:27;;;;;;;5.07;4.57;;;15.40;46.40;;;;;;10493985;28;20242;-72
2022/10/11 01:37:35;;;;;;;6.20;4.40;;;15.50;46.50;;;;;;10497440;28;20244;-71
2022/10/11 01:42:40;;;;;;;7.43;4.77;;;15.50;46.00;;;;;;10494842;28;20232;-72
2022/10/11 01:47:45;;;;;;;5.20;4.70;;;15.50;45.60;;;;;;10498857;28;20240;-71
2022/10/11 01:52:49;;;;;;;4.40;4.00;;;15.60;45.70;;;;;;10500171;28;20227;-71
2022/10/11 01:58:13;;;;;;;4.93;3.80;;;15.60;45.40;;;;;;10494664;28;20294;-71
2022/10/11 02:03:25;;;;;;;5.77;4.70;;;15.60;46.10;;;;;;10493770;28;20235;-73
2022/10/11 02:08:38;;;;;;;7.23;5.10;;;15.70;45.90;;;;;;10494650;28;20231;-73
2022/10/11 02:13:46;;;;;;;5.90;4.07;;;15.60;45.80;;;;;;10493951;28;20255;-71
2022/10/11 02:18:53;;;;;;;5.53;4.17;;;15.60;45.50;;;;;;10493232;28;20240;-71
2022/10/11 02:24:00;;;;;;;5.10;4.60;;;15.50;45.40;;;;;;10494598;28;20228;-73
2022/10/11 02:29:07;;;;;;;7.00;4.47;;;15.50;45.30;;;;;;10496977;28;20230;-71
2022/10/11 02:34:17;;;;;;;7.33;4.40;;;15.50;45.40;;;;;;10494772;28;20236;-73
2022/10/11 02:39:26;;;;;;;5.13;4.40;;;15.40;45.50;;;;;;10492375;28;20646;-71
2022/10/11 02:44:33;;;;;;;5.37;4.27;;;15.50;45.30;;;;;;10487658;28;20696;-71
2022/10/11 02:49:38;;;;;;;4.77;4.23;;;15.40;44.80;;;;;;10490954;28;20243;-71
2022/10/11 02:54:41;;;;;;;4.43;4.00;;;15.40;44.70;;;;;;10492081;28;20589;-71
2022/10/11 02:59:45;;;;;;;4.23;3.83;;;15.30;44.60;;;;;;10492983;28;20239;-71
2022/10/11 03:04:49;;;;;;;5.37;4.23;;;15.20;44.60;;;;;;10493677;28;20730;-71
2022/10/11 03:09:52;;;;;;;4.63;4.10;;;15.20;45.50;;;;;;10489723;28;20232;-71
2022/10/11 03:14:56;;;;;;;4.80;4.30;;;15.20;45.20;;;;;;10496366;28;20242;-73
2022/10/11 03:20:00;;;;;;;5.33;4.70;;;15.10;45.40;;;;;;10488309;28;20223;-73
2022/10/11 03:25:04;;;;;;;4.60;4.00;;;15.10;46.20;;;;;;10494109;28;20261;-71
2022/10/11 03:30:08;;;;;;;5.17;4.23;;;15.10;45.90;;;;;;10493343;28;20220;-71
2022/10/11 03:35:13;;;;;;;6.13;4.37;;;15.10;46.30;;;;;;10493320;28;20228;-73
2022/10/11 03:40:16;;;;;;;5.57;3.70;;;15.10;46.70;;;;;;10492821;28;20298;-73
2022/10/11 03:45:19;;;;;;;5.10;4.17;;;15.20;46.40;;;;;;10495694;28;20300;-73
2022/10/11 03:50:24;;;;;;;6.73;4.13;;;15.20;46.30;;;;;;10495016;28;20235;-73
2022/10/11 03:55:27;;;;;;;5.67;4.10;;;15.20;46.60;;;;;;10491758;28;20232;-73
2022/10/11 04:00:31;;;;;;;4.50;4.10;;;15.30;46.20;;;;;;10494061;28;20249;-71
2022/10/11 04:05:35;;;;;;;4.23;3.87;;;15.30;46.20;;;;;;10491288;28;20232;-72
2022/10/11 04:10:39;;;;;;;3.93;3.53;;;15.30;46.60;;;;;;10500814;28;20259;-73
2022/10/11 04:15:42;;;;;;;4.40;4.00;;;15.40;46.20;;;;;;10503693;28;20224;-73
2022/10/11 04:20:47;;;;;;;7.07;4.60;;;15.40;46.20;;;;;;10500963;28;20227;-71
2022/10/11 04:25:50;;;;;;;4.97;4.47;;;15.40;46.90;;;;;;10485424;28;20266;-73
2022/10/11 04:30:53;;;;;;;4.90;4.40;;;15.40;46.40;;;;;;10491003;28;20239;-71
2022/10/11 04:35:58;;;;;;;5.07;4.57;;;15.40;46.50;;;;;;10494950;28;20235;-71
2022/10/11 04:41:07;;;;;;;5.57;4.27;;;15.50;46.80;;;;;;10506113;28;20922;-73
2022/10/11 04:46:10;;;;;;;4.93;4.23;;;15.50;47.30;;;;;;10513675;28;20942;-73
2022/10/11 04:51:15;;;;;;;6.33;4.53;;;15.50;46.30;;;;;;10504523;28;20251;-73
2022/10/11 04:56:18;;;;;;;6.10;4.50;;;15.50;46.70;;;;;;10500765;28;20734;-73
2022/10/11 05:01:21;;;;;;;4.13;3.80;;;15.50;46.50;;;;;;10505431;28;20251;-71
2022/10/11 05:06:26;;;;;;;5.57;4.63;;;15.50;46.50;;;;;;10496681;28;20979;-73
2022/10/11 05:11:29;;;;;;;5.70;4.50;;;15.60;47.00;;;;;;10500376;28;20240;-73
2022/10/11 05:16:33;;;;;;;4.50;4.03;;;15.60;46.60;;;;;;10500974;28;20240;-75
2022/10/11 05:21:37;;;;;;;4.57;4.00;;;15.60;46.60;;;;;;10516434;28;20250;-71
2022/10/11 05:26:40;;;;;;;3.63;3.33;;;15.60;47.00;;;;;;10504687;28;20488;-71
2022/10/11 05:31:43;;;;;;;4.53;4.10;;;15.70;47.20;;;;;;10528290;22;20238;-77
2022/10/11 05:36:48;;;;;;;5.43;4.57;;;15.70;47.10;;;;;;10444971;28;20233;-77
2022/10/11 05:41:51;;;;;;;6.30;4.80;;;15.80;47.40;;;;;;10439058;28;20235;-78
2022/10/11 05:46:54;;;;;;;5.90;4.27;;;15.80;46.90;;;;;;10444415;28;20720;-77
2022/10/11 05:51:59;;;;;;;5.23;4.40;;;15.80;47.00;;;;;;10441269;28;20229;-77
2022/10/11 05:57:02;;;;;;;5.23;4.73;;;15.80;47.50;;;;;;10452094;28;20966;-77
2022/10/11 06:02:06;;;;;;;6.00;4.80;;;15.80;47.10;;;;;;10442627;28;20236;-77
2022/10/11 06:07:10;;;;;;;6.60;5.33;;;15.70;47.20;;;;;;10440861;28;20229;-77
2022/10/11 06:12:14;;;;;;;8.80;7.17;;;15.80;47.70;;;;;;10443013;28;20232;-77
2022/10/11 06:17:17;;;;;;;8.73;7.90;;;15.80;47.40;;;;;;10440618;28;20247;-77
2022/10/11 06:22:21;;;;;;;9.23;8.00;;;15.80;47.40;;;;;;10449226;28;20221;-77
2022/10/11 06:27:24;;;;;;;7.70;6.90;;;15.90;48.00;;;;;;10447122;28;20236;-77
2022/10/11 06:32:28;;;;;;;5.30;4.80;;;15.90;47.60;;;;;;10452245;28;20754;-77
2022/10/11 06:37:33;;;;;;;6.63;5.30;;;15.90;47.50;;;;;;10488119;28;20221;-77
2022/10/11 06:42:36;;;;;;;5.07;4.50;;;15.90;47.90;;;;;;10481353;28;20702;-77
2022/10/11 06:47:39;;;;;;;7.37;4.60;;;16.00;47.60;;;;;;10485789;28;20227;-78
2022/10/11 06:52:43;;;;;;;7.57;5.93;;;16.00;47.60;;;;;;10483039;28;20239;-78
2022/10/11 06:57:47;;;;;;;7.67;5.50;;;16.00;48.20;;;;;;10478003;28;20247;-78
2022/10/11 07:02:50;;;;;;;6.07;5.47;;;16.00;47.90;;;;;;10474666;28;21802;-80
2022/10/11 07:07:54;;;;;;;9.83;6.43;;;16.10;48.10;;;;;;10484221;28;20274;-78
2022/10/11 07:12:57;;;;;;;6.50;5.83;;;16.10;48.80;;;;;;10477927;28;20301;-78
2022/10/11 07:18:00;;;;;;;7.90;5.20;;;16.10;48.40;;;;;;10488154;28;20688;-77
2022/10/11 07:23:05;;;;;;;7.37;5.37;;;16.20;48.70;;;;;;10486606;28;20231;-77
2022/10/11 07:28:08;;;;;;;7.40;5.83;;;16.30;49.40;;;;;;10475801;28;20216;-77
2022/10/11 07:33:11;;;;;;;10.83;8.33;;;16.40;49.10;;;;;;10486796;28;20803;-78
2022/10/11 07:38:16;;;;;;;13.07;11.43;;;16.40;49.20;;;;;;10476684;28;20232;-77
2022/10/11 07:43:20;;;;;;;10.07;8.47;;;16.50;50.50;;;;;;10475694;28;20762;-77
2022/10/11 07:48:23;;;;;;;9.50;8.03;;;16.60;49.80;;;;;;10472696;28;20255;-79
2022/10/11 07:53:28;;;;;;;10.50;7.50;;;16.70;49.80;;;;;;10482165;28;20750;-79
2022/10/11 07:58:31;;;;;;;9.60;8.50;;;16.70;50.40;;;;;;10481126;28;20760;-78
2022/10/11 08:03:35;;;;;;;9.67;7.50;;;16.80;49.90;;;;;;10477469;28;20236;-78
2022/10/11 08:08:39;;;;;;;7.90;7.10;;;16.90;50.20;;;;;;10475796;28;20677;-79
2022/10/11 08:13:42;;;;;;;7.83;7.07;;;16.90;51.00;;;;;;10480166;28;20242;-79
2022/10/11 08:18:45;;;;;;;7.03;6.43;;;17.10;50.80;;;;;;10492665;28;20216;-77
2022/10/11 08:23:50;;;;;;;7.77;6.30;;;17.20;50.90;;;;;;10487356;28;20274;-77
2022/10/11 08:28:53;;;;;;;7.57;6.30;;;17.40;51.60;;;;;;10486899;28;20201;-77
2022/10/11 08:33:57;;;;;;;6.60;5.70;;;17.60;51.20;;;;;;10485130;28;20323;-78
2022/10/11 08:39:01;;;;;;;7.27;5.90;;;17.80;50.80;;;;;;10487633;28;20571;-77
2022/10/11 08:44:18;;;;;;;6.87;5.90;;;17.90;50.80;;;;;;10485344;28;20227;-78
2022/10/11 09:21:57;;;;;;;8.20;7.40;;;16.50;54.40;;;;;;10411899;27;20954;-71
2022/10/11 09:27:08;;;;;;;7.90;7.00;;;17.40;57.00;;;;;;10401024;28;20926;-72
2022/10/11 09:32:15;;;;;;;11.23;8.20;;;17.90;54.40;;;;;;10417263;28;20224;-72
2022/10/11 09:37:24;;;;;;;8.60;7.77;;;18.10;53.00;;;;;;10414352;28;20224;-72
2022/10/11 09:42:27;;;;;;;8.10;6.97;;;18.30;52.00;;;;;;10419189;28;20237;-72
2022/10/11 09:47:31;;;;;;;6.97;6.33;;;18.50;51.20;;;;;;10419552;28;20874;-72
2022/10/11 09:52:48;;;;;;;7.30;6.47;;;18.60;50.70;;;;;;10424513;28;20235;-72
2022/10/11 09:57:56;;;;;;;7.87;7.07;;;18.70;50.70;;;;;;10409138;28;20221;-72
2022/10/11 10:03:01;;;;;;;12.27;7.50;;;18.80;50.30;;;;;;10414527;28;20244;-72
2022/10/11 10:08:22;;;;;;;7.20;6.47;;;18.90;50.20;;;;;;10415108;28;20225;-72
2022/10/11 10:13:34;;;;;;;7.77;6.33;;;19.00;49.70;;;;;;10412447;28;20241;-72
2022/10/11 10:18:44;;;;;;;7.00;6.43;;;19.10;49.50;;;;;;10410239;28;20231;-72
2022/10/11 10:23:54;;;;;;;8.73;6.67;;;19.20;49.50;;;;;;10385362;28;20251;-72
2022/10/11 10:29:04;;;;;;;7.97;6.10;;;19.30;49.70;;;;;;10383737;28;20226;-72
2022/10/11 10:34:14;;;;;;;6.23;5.63;;;19.40;48.90;;;;;;10387577;28;20670;-72
2022/10/11 10:39:25;;;;;;;6.13;5.60;;;19.50;48.40;;;;;;10384560;28;20646;-72
2022/10/11 10:44:28;;;;;;;6.07;5.43;;;19.60;48.40;;;;;;10382454;28;20644;-72
2022/10/11 10:49:37;;;;;;;7.00;4.83;;;19.60;48.40;;;;;;10385673;28;20303;-72
2022/10/11 10:55:04;;;;;;;5.50;4.43;;;19.70;48.20;;;;;;10379955;28;20226;-72
2022/10/11 11:00:14;;;;;;;5.93;5.30;;;19.70;47.60;;;;;;10382085;28;20241;-71
2022/10/11 11:05:26;;;;;;;6.90;4.90;;;19.80;47.50;;;;;;10385376;28;20230;-71
2022/10/11 11:10:36;;;;;;;4.77;4.20;;;19.90;47.30;;;;;;10378121;28;20230;-72
2022/10/11 11:15:45;;;;;;;5.30;4.60;;;20.00;47.00;;;;;;10381128;28;20230;-72
2022/10/11 11:21:07;;;;;;;6.73;4.80;;;20.00;47.00;;;;;;10368819;28;20238;-72
2022/10/11 11:26:20;;;;;;;6.40;5.33;;;20.00;47.00;;;;;;10381951;28;21095;-71
2022/10/11 11:31:45;;;;;;;6.97;5.53;;;20.10;46.90;;;;;;10377924;28;20857;-72
2022/10/11 11:36:51;;;;;;;6.67;5.70;;;20.10;46.50;;;;;;10382163;28;20241;-72
2022/10/11 11:42:01;;;;;;;9.53;6.30;;;20.00;46.70;;;;;;10385156;28;20226;-71
2022/10/11 11:47:10;;;;;;;7.67;6.33;;;19.90;46.60;;;;;;10377922;28;20259;-70
2022/10/11 11:52:26;;;;;;;6.87;6.20;;;19.90;46.60;;;;;;10379603;28;20778;-71
2022/10/11 11:57:51;;;;;;;6.87;5.20;;;19.80;46.20;;;;;;10380694;28;20256;-70
2022/10/11 12:02:59;;;;;;;6.20;5.60;;;19.80;46.40;;;;;;10383125;28;20233;-71
2022/10/11 12:08:06;;;;;;;5.77;5.27;;;19.80;46.50;;;;;;10384717;28;20222;-70
2022/10/11 12:13:18;;;;;;;6.97;4.90;;;19.80;46.40;;;;;;10377743;28;20238;-70
2022/10/11 12:18:22;;;;;;;7.37;6.17;;;19.90;46.00;;;;;;10378147;28;20229;-71
2022/10/11 12:23:41;;;;;;;5.90;5.40;;;19.90;46.50;;;;;;10377688;28;20237;-71
2022/10/11 12:29:04;;;;;;;7.50;6.40;;;19.90;46.20;;;;;;10378708;28;20724;-71
2022/10/11 12:34:20;;;;;;;6.63;5.87;;;19.90;46.20;;;;;;10376790;28;20234;-71
2022/10/11 12:39:50;;;;;;;6.90;5.97;;;20.00;46.10;;;;;;10375594;28;20225;-71
2022/10/11 12:45:32;;;;;;;6.83;5.43;;;19.90;45.90;;;;;;10381000;28;20230;-71
2022/10/11 12:50:45;;;;;;;5.00;4.60;;;20.00;45.70;;;;;;10384327;28;20687;-70
2022/10/11 12:55:59;;;;;;;5.30;4.80;;;20.00;45.60;;;;;;10376162;28;20218;-71
2022/10/11 13:01:29;;;;;;;5.17;4.63;;;20.10;45.30;;;;;;10376554;28;20634;-71
2022/10/11 13:06:35;;;;;;;5.50;4.97;;;20.20;45.10;;;;;;10355930;28;20305;-71
2022/10/11 13:11:45;;;;;;;7.33;5.40;;;20.20;45.40;;;;;;10375092;28;20225;-71
2022/10/11 13:16:59;;;;;;;4.97;4.40;;;20.30;45.10;;;;;;10378194;28;20237;-70
2022/10/11 13:22:05;;;;;;;5.00;4.50;;;20.30;45.20;;;;;;10377862;28;20230;-70
2022/10/11 13:27:16;;;;;;;4.90;4.03;;;20.30;44.70;;;;;;10376717;28;20233;-69
2022/10/11 13:32:24;;;;;;;5.00;3.87;;;20.40;44.10;;;;;;10370328;28;20230;-70
2022/10/11 13:37:28;;;;;;;5.00;3.50;;;20.40;44.20;;;;;;10375206;28;20237;-69
2022/10/11 13:42:32;;;;;;;4.10;3.70;;;20.40;44.30;;;;;;10373490;28;20257;-70
2022/10/11 13:47:37;;;;;;;7.73;5.67;;;20.50;44.60;;;;;;10374391;28;20249;-69
2022/10/11 13:52:54;;;;;;;7.33;6.53;;;20.40;44.60;;;;;;10379509;28;20328;-70
2022/10/11 13:58:00;;;;;;;7.97;6.70;;;20.40;44.40;;;;;;10385192;28;20218;-70
2022/10/11 14:03:17;;;;;;;9.17;6.93;;;20.40;45.10;;;;;;10386938;28;20230;-70
2022/10/11 14:08:24;;;;;;;7.60;6.53;;;20.40;44.80;;;;;;10383509;28;20257;-69
2022/10/11 14:13:31;;;;;;;6.57;5.97;;;20.40;44.40;;;;;;10381414;28;20723;-70
2022/10/11 14:18:47;;;;;;;7.93;6.00;;;20.40;44.00;;;;;;10384293;28;20230;-70
2022/10/11 14:23:52;;;;;;;7.60;5.70;;;20.40;43.80;;;;;;10382145;28;20230;-71
2022/10/11 14:28:58;;;;;;;8.03;6.23;;;20.30;43.90;;;;;;10379767;28;20241;-71
2022/10/11 14:34:03;;;;;;;8.13;6.07;;;20.20;43.80;;;;;;10379376;28;20280;-72
2022/10/11 14:39:13;;;;;;;6.73;5.87;;;20.20;44.00;;;;;;10380453;28;20233;-70
2022/10/11 14:44:16;;;;;;;6.67;5.70;;;20.10;43.80;;;;;;10383348;28;20229;-70
2022/10/11 14:49:23;;;;;;;6.37;5.47;;;20.10;44.20;;;;;;10380991;28;20253;-70
2022/10/11 14:54:28;;;;;;;6.47;5.80;;;20.00;43.60;;;;;;10372487;28;20230;-70
2022/10/11 14:59:35;;;;;;;7.67;5.50;;;20.00;43.90;;;;;;10384244;28;20226;-70
2022/10/11 15:04:39;;;;;;;6.83;5.60;;;20.00;43.70;;;;;;10377983;28;20241;-70
2022/10/11 15:09:42;;;;;;;7.33;5.60;;;19.90;43.80;;;;;;10378002;28;20964;-70
2022/10/11 15:14:46;;;;;;;6.07;5.53;;;19.90;44.20;;;;;;10370359;28;20230;-70
2022/10/11 15:19:50;;;;;;;7.13;5.50;;;19.90;44.30;;;;;;10380333;28;20222;-70
2022/10/11 15:24:53;;;;;;;6.43;5.90;;;19.90;44.20;;;;;;10377748;28;20222;-70
2022/10/11 15:29:57;;;;;;;8.47;7.57;;;19.90;44.30;;;;;;10386848;28;20234;-70
2022/10/11 15:35:01;;;;;;;8.30;6.47;;;19.90;44.30;;;;;;10379621;28;20293;-70
2022/10/11 15:40:19;;;;;;;6.67;5.80;;;19.90;44.00;;;;;;10375741;28;20250;-69
2022/10/11 15:45:23;;;;;;;6.47;5.87;;;19.90;43.80;;;;;;10381092;28;20782;-70
2022/10/11 15:50:36;;;;;;;6.40;5.77;;;19.90;44.20;;;;;;10381568;28;20228;-70
2022/10/11 15:55:42;;;;;;;7.47;5.43;;;19.80;44.00;;;;;;10384471;28;20788;-71
2022/10/11 16:00:46;;;;;;;6.00;5.50;;;19.80;44.80;;;;;;10385820;28;20230;-70
2022/10/11 16:05:52;;;;;;;6.77;6.07;;;19.80;44.80;;;;;;10382753;28;20233;-70
2022/10/11 16:10:56;;;;;;;6.60;6.00;;;19.90;44.50;;;;;;10377862;28;20233;-70
2022/10/11 16:16:00;;;;;;;7.17;6.47;;;19.90;44.50;;;;;;10380887;28;20222;-70
2022/10/11 16:21:08;;;;;;;8.70;6.23;;;19.90;44.10;;;;;;10378402;28;20606;-70
2022/10/11 16:26:15;;;;;;;8.47;7.30;;;19.90;44.00;;;;;;10377420;28;20322;-70
2022/10/11 16:31:19;;;;;;;7.60;6.90;;;19.80;43.80;;;;;;10375825;28;20802;-70
2022/10/11 16:36:35;;;;;;;7.43;6.73;;;19.70;43.90;;;;;;10372639;28;20229;-70
2022/10/11 16:41:39;;;;;;;7.73;6.33;;;19.70;43.80;;;;;;10375257;28;20794;-71
2022/10/11 16:46:42;;;;;;;7.67;6.53;;;19.70;44.00;;;;;;10378250;28;20229;-70
2022/10/11 16:51:46;;;;;;;7.33;6.20;;;19.60;43.80;;;;;;10382485;28;20253;-70
2022/10/11 16:56:50;;;;;;;8.03;7.33;;;19.50;43.60;;;;;;10376157;28;20218;-70
2022/10/11 17:01:54;;;;;;;9.17;6.67;;;19.40;43.50;;;;;;10375036;28;20676;-71
2022/10/11 17:06:59;;;;;;;7.73;6.97;;;19.20;43.50;;;;;;10373851;28;21091;-71
2022/10/11 17:12:02;;;;;;;9.67;8.53;;;19.10;43.50;;;;;;10373875;28;20699;-70
2022/10/11 17:17:06;;;;;;;10.63;8.87;;;19.00;43.50;;;;;;10374522;28;20229;-70
2022/10/11 17:22:12;;;;;;;9.27;7.93;;;18.80;43.70;;;;;;10375406;28;20275;-70
2022/10/11 17:27:15;;;;;;;9.70;8.57;;;18.70;43.80;;;;;;10373099;28;20222;-70
2022/10/11 17:32:18;;;;;;;10.47;7.40;;;18.70;44.10;;;;;;10381118;28;20233;-70
2022/10/11 17:37:23;;;;;;;9.30;7.23;;;18.60;44.00;;;;;;10385811;28;20232;-70
2022/10/11 17:42:26;;;;;;;9.27;8.13;;;18.60;44.00;;;;;;10380956;28;20242;-70
2022/10/11 17:47:29;;;;;;;10.60;8.83;;;18.50;43.80;;;;;;10379964;28;20222;-70
2022/10/11 17:52:33;;;;;;;9.23;7.90;;;18.40;43.90;;;;;;10384515;28;20261;-70
2022/10/11 17:57:36;;;;;;;7.60;6.83;;;18.30;43.80;;;;;;10383508;28;20221;-70
2022/10/11 18:02:40;;;;;;;8.77;7.13;;;18.30;43.80;;;;;;10384302;28;20233;-70
2022/10/11 18:07:44;;;;;;;7.40;6.53;;;18.20;43.70;;;;;;10384283;28;20234;-70
2022/10/11 18:12:51;;;;;;;7.47;6.87;;;18.20;43.70;;;;;;10383854;28;20228;-70
2022/10/11 18:17:56;;;;;;;8.93;8.03;;;18.10;43.80;;;;;;10389390;28;20234;-70
2022/10/11 18:23:01;;;;;;;9.37;8.40;;;18.10;43.70;;;;;;10381275;28;20743;-70
2022/10/11 18:28:04;;;;;;;9.40;8.50;;;18.00;43.50;;;;;;10375377;28;20218;-70
2022/10/11 18:33:07;;;;;;;10.00;8.87;;;17.90;43.50;;;;;;10388540;28;20316;-71
2022/10/11 18:38:12;;;;;;;11.33;10.30;;;17.80;43.70;;;;;;10384773;28;20226;-71
2022/10/11 18:43:15;;;;;;;12.77;11.70;;;17.70;43.80;;;;;;10379524;28;20229;-70
2022/10/11 18:48:18;;;;;;;11.03;10.03;;;17.70;43.90;;;;;;10386800;28;20269;-71
2022/10/11 18:53:23;;;;;;;11.30;9.20;;;17.70;44.00;;;;;;10384207;28;22962;-70
2022/10/11 18:58:26;;;;;;;9.73;8.37;;;17.60;43.90;;;;;;10380597;28;20225;-71
2022/10/11 19:03:29;;;;;;;8.67;7.87;;;17.60;43.90;;;;;;10375914;28;20242;-70
2022/10/11 19:08:38;;;;;;;8.73;7.57;;;17.60;43.80;;;;;;10377665;28;20706;-70
2022/10/11 19:13:42;;;;;;;11.53;10.37;;;17.50;43.70;;;;;;10379621;28;20229;-70
2022/10/11 19:18:49;;;;;;;12.93;9.97;;;17.50;43.80;;;;;;10384871;28;20233;-70
2022/10/11 19:23:56;;;;;;;11.23;10.07;;;17.40;43.90;;;;;;10378328;28;20236;-70
2022/10/11 19:29:02;;;;;;;10.63;9.00;;;17.40;44.00;;;;;;10381450;28;20234;-70
2022/10/11 19:34:05;;;;;;;11.20;8.47;;;17.40;44.10;;;;;;10382377;28;20767;-70
2022/10/11 19:39:11;;;;;;;9.13;8.20;;;17.40;44.20;;;;;;10384124;28;20237;-70
2022/10/11 19:44:16;;;;;;;8.70;7.77;;;17.40;44.30;;;;;;10379106;28;20249;-70
2022/10/11 19:49:21;;;;;;;10.30;8.47;;;17.30;44.40;;;;;;10382025;28;20730;-70
2022/10/11 19:54:26;;;;;;;7.70;6.90;;;17.30;44.30;;;;;;10376724;28;20236;-68
2022/10/11 19:59:31;;;;;;;7.60;5.97;;;17.20;44.00;;;;;;10379701;28;20321;-68
2022/10/11 20:04:35;;;;;;;7.60;6.83;;;17.20;44.00;;;;;;10383370;28;20217;-68
2022/10/11 20:09:56;;;;;;;8.73;6.10;;;17.20;44.20;;;;;;10379251;28;20309;-68
2022/10/11 20:14:59;;;;;;;8.03;6.70;;;17.10;44.30;;;;;;10380754;28;20249;-68
2022/10/11 20:20:02;;;;;;;7.13;6.43;;;17.00;44.10;;;;;;10377094;28;20699;-71
2022/10/11 20:25:08;;;;;;;6.43;5.77;;;17.00;44.20;;;;;;10375132;28;20249;-72
2022/10/11 20:30:13;;;;;;;10.13;7.37;;;17.00;44.50;;;;;;10378660;28;20230;-68
2022/10/11 20:35:16;;;;;;;9.23;8.33;;;17.00;44.60;;;;;;10376916;28;20236;-68
2022/10/11 20:40:21;;;;;;;7.63;6.83;;;16.90;44.60;;;;;;10375447;28;20222;-68
2022/10/11 20:45:24;;;;;;;7.33;6.73;;;16.90;44.60;;;;;;10371079;28;20237;-68
2022/10/11 20:50:27;;;;;;;9.03;8.33;;;16.80;44.60;;;;;;10374339;28;20230;-68
2022/10/11 20:55:32;;;;;;;9.83;8.10;;;16.80;44.60;;;;;;10377595;28;20225;-68
2022/10/11 21:00:35;;;;;;;11.17;8.03;;;16.70;44.80;;;;;;10375498;28;20942;-68
2022/10/11 21:05:38;;;;;;;10.27;8.37;;;16.70;44.90;;;;;;10373843;28;20233;-68
2022/10/11 21:10:51;;;;;;;9.47;8.47;;;16.60;45.00;;;;;;10376112;28;20229;-68
2022/10/11 21:15:54;;;;;;;11.73;10.23;;;16.60;45.70;;;;;;10375536;28;20229;-68
2022/10/11 21:20:57;;;;;;;10.70;9.57;;;16.60;45.30;;;;;;10380321;28;20784;-68
2022/10/11 21:26:03;;;;;;;9.10;7.90;;;16.70;45.50;;;;;;10371805;28;20233;-68
2022/10/11 21:31:09;;;;;;;9.50;8.60;;;16.70;45.80;;;;;;10373307;28;20217;-68
2022/10/11 21:36:14;;;;;;;10.50;8.43;;;16.70;45.80;;;;;;10375060;28;20226;-68
2022/10/11 21:41:20;;;;;;;10.20;9.20;;;16.70;45.80;;;;;;10373650;28;20229;-68
2022/10/11 21:46:25;;;;;;;10.40;7.80;;;16.70;45.80;;;;;;10376268;28;20233;-68
2022/10/11 21:51:49;;;;;;;10.10;8.97;;;16.70;45.80;;;;;;10371607;28;20321;-68
2022/10/11 21:56:53;;;;;;;10.73;9.73;;;16.70;45.80;;;;;;10381218;28;20271;-68
2022/10/11 22:01:56;;;;;;;9.83;8.93;;;16.70;45.80;;;;;;10376831;28;20767;-69
2022/10/11 22:07:04;;;;;;;8.90;8.00;;;16.70;45.80;;;;;;10374197;28;20234;-68
2022/10/11 22:12:09;;;;;;;9.43;7.97;;;16.70;45.80;;;;;;10376539;28;20229;-69
2022/10/11 22:17:12;;;;;;;9.57;8.07;;;16.70;45.80;;;;;;10383764;28;21020;-69
2022/10/11 22:22:15;;;;;;;10.73;9.57;;;16.70;45.80;;;;;;10384188;28;20256;-69
2022/10/11 22:27:19;;;;;;;10.33;9.33;;;16.70;45.80;;;;;;10386328;28;20221;-69
2022/10/11 22:32:23;;;;;;;9.57;8.40;;;16.70;45.80;;;;;;10384747;28;20237;-69
2022/10/11 22:37:26;;;;;;;11.43;10.10;;;16.70;45.80;;;;;;10384917;28;20230;-68
2022/10/11 22:42:30;;;;;;;10.07;9.17;;;16.70;45.80;;;;;;10388141;28;20288;-69
2022/10/11 22:47:33;;;;;;;12.03;10.30;;;16.70;45.80;;;;;;10384836;28;20236;-68
2022/10/11 22:52:37;;;;;;;11.67;10.47;;;16.70;45.80;;;;;;10390972;28;20292;-68
2022/10/11 22:57:41;;;;;;;10.37;9.27;;;16.70;45.80;;;;;;10384913;28;20234;-68
2022/10/11 23:02:44;;;;;;;11.10;10.10;;;16.70;45.80;;;;;;10384834;28;20260;-68
2022/10/11 23:07:48;;;;;;;12.70;11.40;;;16.70;45.80;;;;;;10383598;28;20236;-68
2022/10/11 23:12:52;;;;;;;13.90;12.50;;;16.70;45.80;;;;;;10379449;28;20260;-68
2022/10/11 23:17:55;;;;;;;13.80;12.40;;;16.70;45.80;;;;;;10379050;28;20286;-68
2022/10/11 23:22:59;;;;;;;13.63;12.33;;;16.60;45.70;;;;;;10385182;28;20230;-68
2022/10/11 23:28:03;;;;;;;14.50;13.10;;;16.60;45.70;;;;;;10384588;28;20227;-69
2022/10/11 23:33:07;;;;;;;14.20;12.90;;;16.60;45.70;;;;;;10377401;28;20684;-69
2022/10/11 23:38:10;;;;;;;15.57;13.97;;;16.50;45.60;;;;;;10385519;28;20240;-69
2022/10/11 23:43:14;;;;;;;15.47;14.10;;;16.50;45.60;;;;;;10378552;28;20249;-69
2022/10/11 23:48:17;;;;;;;15.93;14.33;;;16.50;45.60;;;;;;10380866;28;20230;-68
2022/10/11 23:53:20;;;;;;;15.40;13.80;;;16.40;45.60;;;;;;10381918;28;20234;-69
2022/10/11 23:58:25;;;;;;;15.20;13.80;;;16.30;45.50;;;;;;10381993;28;20222;-68
